createdAt,value
2023-01-27T00:04:41.408Z,1.22
2023-01-27T00:09:34.815Z,1.31
2023-01-27T00:14:29.679Z,1.45
2023-01-27T00:29:33.685Z,1.35
2023-01-27T00:34:27.151Z,1.24
2023-01-27T00:39:20.457Z,1.22
2023-01-27T00:44:13.845Z,1.04
2023-01-27T01:38:14.135Z,0.89
2023-01-27T01:43:16.224Z,1.07
2023-01-27T02:08:42.771Z,0.89
2023-01-27T02:13:37.954Z,0.69
2023-01-27T02:18:31.965Z,0.58
2023-01-27T02:23:56.723Z,0.58
2023-01-27T02:28:58.133Z,0.60
2023-01-27T02:33:54.429Z,0.63
2023-01-27T02:38:51.772Z,0.71
2023-01-27T02:43:45.099Z,0.62
2023-01-27T02:48:39.881Z,0.66
2023-01-27T02:53:33.374Z,0.73
2023-01-27T02:58:27.044Z,0.57
2023-01-27T03:03:20.442Z,0.59
2023-01-27T03:08:15.196Z,0.73
2023-01-27T03:13:08.597Z,0.34
2023-01-27T03:18:13.885Z,0.50
2023-01-27T03:23:07.566Z,0.59
2023-01-27T03:28:02.404Z,0.58
2023-01-27T03:32:58.307Z,0.88
2023-01-27T03:38:09.582Z,0.74
2023-01-27T03:43:22.142Z,0.67
2023-01-27T03:48:18.560Z,0.40
2023-01-27T03:53:12.315Z,0.44
2023-01-27T03:58:21.476Z,0.38
2023-01-27T04:03:32.339Z,0.61
2023-01-27T04:08:25.841Z,0.67
2023-01-27T04:13:20.907Z,0.33
2023-01-27T04:18:14.265Z,0.53
2023-01-27T04:23:07.575Z,0.50
2023-01-27T04:28:00.862Z,0.52
2023-01-27T04:32:55.515Z,0.85
2023-01-27T04:37:48.980Z,0.68
2023-01-27T04:42:42.282Z,0.83
2023-01-27T04:47:35.564Z,0.73
2023-01-27T04:52:30.301Z,0.71
2023-01-27T04:57:23.656Z,0.94
2023-01-27T05:02:17.002Z,0.89
2023-01-27T05:07:11.207Z,0.91
2023-01-27T05:12:06.841Z,1.02
2023-01-27T05:17:00.185Z,0.85
2023-01-27T05:21:53.486Z,0.85
2023-01-27T05:26:46.750Z,0.89
2023-01-27T05:31:41.641Z,0.64
2023-01-27T05:36:35.054Z,0.64
2023-01-27T05:41:31.868Z,0.63
2023-01-27T05:46:29.250Z,0.66
2023-01-27T05:51:25.653Z,0.76
2023-01-27T05:56:20.922Z,0.59
2023-01-27T06:01:17.032Z,0.50
2023-01-27T06:06:12.292Z,0.69
2023-01-27T06:11:08.356Z,0.71
2023-01-27T06:16:04.859Z,0.79
2023-01-27T06:20:59.964Z,0.71
2023-01-27T06:25:53.346Z,0.64
2023-01-27T06:30:48.458Z,0.80
2023-01-27T06:35:42.411Z,0.81
2023-01-27T06:40:36.881Z,0.63
2023-01-27T06:45:30.432Z,0.39
2023-01-27T06:50:26.028Z,0.40
2023-01-27T06:55:20.584Z,0.67
2023-01-27T07:00:16.032Z,0.72
2023-01-27T07:05:10.318Z,0.58
2023-01-27T07:10:05.995Z,0.84
2023-01-27T07:14:59.372Z,0.64
2023-01-27T07:19:52.795Z,0.49
2023-01-27T07:24:46.256Z,0.40
2023-01-27T07:29:41.111Z,0.28
2023-01-27T07:34:34.626Z,0.33
2023-01-27T07:39:28.033Z,0.60
2023-01-27T07:44:21.842Z,0.67
2023-01-27T07:49:16.763Z,0.75
2023-01-27T07:54:10.247Z,0.69
2023-01-27T07:59:04.473Z,0.70
2023-01-27T08:03:58.013Z,0.63
2023-01-27T08:08:52.766Z,0.72
2023-01-27T08:13:46.145Z,0.82
2023-01-27T08:18:39.769Z,0.93
2023-01-27T08:23:34.729Z,0.86
2023-01-27T08:28:32.400Z,1.12
2023-01-27T08:33:25.896Z,0.94
2023-01-27T08:38:20.967Z,1.02
2023-01-27T08:43:17.724Z,0.78
2023-01-27T08:48:12.744Z,0.87
2023-01-27T08:53:07.012Z,1.03
2023-01-27T08:58:00.772Z,1.17
2023-01-27T09:02:54.312Z,0.98
2023-01-27T09:07:49.922Z,1.14
2023-01-27T09:12:46.740Z,0.98
2023-01-27T09:17:40.141Z,0.97
2023-01-27T09:22:34.069Z,1.12
2023-01-27T09:27:38.672Z,1.34
2023-01-27T09:32:33.179Z,1.23
2023-01-27T09:37:28.004Z,1.43
2023-01-27T09:42:51.975Z,1.33
2023-01-27T09:48:08.542Z,1.31
2023-01-27T09:53:43.114Z,1.36
2023-01-27T09:58:58.502Z,1.41
2023-01-27T10:04:24.345Z,1.55
2023-01-27T10:09:58.632Z,1.54
2023-01-27T10:15:06.752Z,1.67
2023-01-27T10:20:25.254Z,1.79
2023-01-27T10:25:37.374Z,1.72
2023-01-27T10:30:36.512Z,1.83
2023-01-27T10:35:40.990Z,1.53
2023-01-27T10:40:46.462Z,1.43
2023-01-27T10:45:55.165Z,1.50
2023-01-27T10:50:56.224Z,1.50
2023-01-27T10:56:02.274Z,1.58
2023-01-27T11:01:19.731Z,1.66
2023-01-27T11:06:17.205Z,1.60
2023-01-27T11:11:29.334Z,1.75
2023-01-27T11:16:28.978Z,1.55
2023-01-27T11:21:28.625Z,1.47
2023-01-27T11:26:33.486Z,1.22
2023-01-27T11:31:41.426Z,1.14
2023-01-27T11:36:36.472Z,0.92
2023-01-27T11:41:29.928Z,0.93
2023-01-27T11:46:25.569Z,1.14
2023-01-27T11:51:24.121Z,1.16
2023-01-27T11:56:20.829Z,1.22
2023-01-27T12:01:20.796Z,1.19
2023-01-27T12:06:19.464Z,1.38
2023-01-27T12:11:24.854Z,1.45
2023-01-27T12:16:18.508Z,1.16
2023-01-27T12:21:12.450Z,1.18
2023-01-27T12:26:09.111Z,1.33
2023-01-27T12:31:11.193Z,1.30
2023-01-27T12:36:16.059Z,1.45
2023-01-27T12:41:14.773Z,1.17
2023-01-27T12:46:23.943Z,1.20
2023-01-27T12:51:22.287Z,1.48
2023-01-27T12:56:19.028Z,1.29
2023-01-27T13:01:34.923Z,1.18
2023-01-27T13:06:44.222Z,1.03
2023-01-27T13:11:41.739Z,0.91
2023-01-27T13:16:38.011Z,1.00
2023-01-27T13:21:37.203Z,1.21
2023-01-27T13:26:37.382Z,1.13
2023-01-27T13:31:43.601Z,1.13
2023-01-27T13:36:45.613Z,1.10
2023-01-27T13:41:47.948Z,1.37
2023-01-27T13:46:44.835Z,1.15
2023-01-27T13:51:39.677Z,0.99
2023-01-27T13:56:54.478Z,1.04
2023-01-27T14:02:07.696Z,1.15
2023-01-27T14:07:18.981Z,1.11
2023-01-27T14:12:33.647Z,1.01
2023-01-27T14:17:41.340Z,0.93
2023-01-27T14:22:53.141Z,1.03
2023-01-27T14:27:51.329Z,1.05
2023-01-27T14:32:55.819Z,1.17
2023-01-27T14:38:02.062Z,1.10
2023-01-27T14:43:18.682Z,1.15
2023-01-27T14:48:44.044Z,1.41
2023-01-27T14:53:58.003Z,1.33
2023-01-27T14:59:04.235Z,1.23
2023-01-27T15:04:37.864Z,1.41
2023-01-27T15:09:51.308Z,1.36
2023-01-27T15:15:27.760Z,1.23
2023-01-27T15:20:53.979Z,1.14
2023-01-27T15:25:51.288Z,1.17
2023-01-27T15:31:09.922Z,1.33
2023-01-27T15:36:32.035Z,1.43
2023-01-27T15:41:26.247Z,1.51
2023-01-27T15:46:31.323Z,1.38
2023-01-27T15:51:26.434Z,1.46
2023-01-27T15:56:19.924Z,1.46
2023-01-27T16:01:27.753Z,1.34
2023-01-27T16:06:27.339Z,1.38
2023-01-27T16:11:41.954Z,1.38
2023-01-27T16:16:36.934Z,1.43
2023-01-27T16:21:49.605Z,1.39
2023-01-27T16:26:50.558Z,1.27
2023-01-27T16:31:45.416Z,1.23
2023-01-27T16:36:41.324Z,1.17
2023-01-27T16:41:40.505Z,1.18
2023-01-27T16:46:38.988Z,0.83
2023-01-27T16:51:35.167Z,0.82
2023-01-27T16:56:33.759Z,0.69
2023-01-27T17:01:41.017Z,0.81
2023-01-27T17:06:35.704Z,1.01
2023-01-27T17:11:34.188Z,0.72
2023-01-27T17:16:32.566Z,0.85
2023-01-27T17:21:38.373Z,0.75
2023-01-27T17:26:35.485Z,0.68
2023-01-27T17:31:29.261Z,0.84
2023-01-27T17:36:22.718Z,0.77
2023-01-27T17:41:29.103Z,0.79
2023-01-27T17:46:27.547Z,0.83
2023-01-27T17:51:26.146Z,0.96
2023-01-27T17:56:25.260Z,0.76
2023-01-27T18:01:19.553Z,0.63
2023-01-27T18:06:17.310Z,0.70
2023-01-27T18:11:13.565Z,0.85
2023-01-27T18:16:16.776Z,1.02
2023-01-27T18:21:19.757Z,1.04
2023-01-27T18:26:22.514Z,0.81
2023-01-27T18:31:23.326Z,0.97
2023-01-27T18:36:24.622Z,1.18
2023-01-27T18:41:27.530Z,0.99
2023-01-27T18:46:21.350Z,1.03
2023-01-27T18:51:17.033Z,0.92
2023-01-27T18:56:12.241Z,1.10
2023-01-27T19:01:15.715Z,0.90
2023-01-27T19:06:16.487Z,1.17
2023-01-27T19:11:16.174Z,1.13
2023-01-27T19:16:14.923Z,0.93
2023-01-27T19:21:10.168Z,1.10
2023-01-27T19:26:11.633Z,1.04
2023-01-27T19:31:07.960Z,1.11
2023-01-27T19:36:12.056Z,1.18
2023-01-27T19:41:05.753Z,1.24
2023-01-27T19:45:59.289Z,1.06
2023-01-27T19:50:54.564Z,1.06
2023-01-27T19:55:49.351Z,0.94
2023-01-27T20:00:42.908Z,1.03
2023-01-27T20:05:36.358Z,0.86
2023-01-27T20:10:33.588Z,1.00
2023-01-27T20:15:30.726Z,0.96
2023-01-27T20:20:26.867Z,1.24
2023-01-27T20:25:23.671Z,1.13
2023-01-27T20:30:22.478Z,1.10
2023-01-27T20:35:19.196Z,1.06
2023-01-27T20:40:16.739Z,1.27
2023-01-27T20:45:10.849Z,1.15
2023-01-27T20:50:07.596Z,1.07
2023-01-27T20:55:01.417Z,1.10
2023-01-27T20:59:54.962Z,1.19
2023-01-27T21:04:48.538Z,1.27
2023-01-27T21:09:43.278Z,1.23
2023-01-27T21:14:39.789Z,1.26
2023-01-27T21:19:33.698Z,1.24
2023-01-27T21:24:27.423Z,1.01
2023-01-27T21:29:22.529Z,1.13
2023-01-27T21:34:15.936Z,1.08
2023-01-27T21:39:09.314Z,1.18
2023-01-27T21:44:20.505Z,1.13
2023-01-27T21:49:15.397Z,1.23
2023-01-27T21:54:09.044Z,1.31
2023-01-27T21:59:02.447Z,1.28
2023-01-27T22:03:55.965Z,1.25
2023-01-27T22:08:52.918Z,1.28
2023-01-27T22:13:46.633Z,1.28
2023-01-27T22:18:40.129Z,1.26
2023-01-27T22:23:33.578Z,1.26
2023-01-27T22:28:28.560Z,1.25
2023-01-27T22:33:21.935Z,1.13
2023-01-27T22:38:15.323Z,1.08
2023-01-27T22:43:10.731Z,1.14
2023-01-27T22:48:05.953Z,0.96
2023-01-27T22:52:59.668Z,1.08
2023-01-27T22:57:52.999Z,0.89
2023-01-27T23:02:46.523Z,0.87
2023-01-27T23:07:41.391Z,0.74
2023-01-27T23:12:34.823Z,0.98
2023-01-27T23:17:28.318Z,0.85
2023-01-27T23:22:21.731Z,0.82
2023-01-27T23:27:16.799Z,0.99
2023-01-27T23:32:10.134Z,0.82
2023-01-27T23:37:03.591Z,0.95
2023-01-27T23:41:57.073Z,0.95
2023-01-27T23:46:51.788Z,0.99
2023-01-27T23:51:45.114Z,0.84
2023-01-27T23:56:38.497Z,1.20
